Terminal Aerodrome Forecast
Issued by NWS

Home | Current Version | Previous Version | Text Only | Print | Product List | Glossary On
Versions: 1 2 3 4 5 6 7 8 9 10 11 12 13
919
FTUS42 KMLB 252325
TAFFPR
TAF
KFPR 252325Z 2600/2624 11007KT P6SM SCT250
     FM261400 06005KT P6SM SCT025
     FM261800 08008KT P6SM VCTS SCT030CB BKN100
     FM262100 11008KT P6SM SCT030 BKN200=

USA.gov is the U.S. government's official web portal to all federal, state and local government web resources and services.